Time;durP1;ratioP1;P1;durP2;ratioP2;P2;SDS_P1;SDS_P2;PMS_P1;PMS_P2;Temp;Humidity;BMP_temperature;BMP_pressure;BME280_temperature;BME280_humidity;BME280_pressure;Samples;Min_cycle;Max_cycle;Signal;HPM_P1;HPM_P2
2024/01/16 00:02:04;;;;;;;3.00;2.73;;;;;;;3.44;64.41;99884.44;4894120;29;20405;-87
2024/01/16 00:04:32;;;;;;;1.65;1.15;;;;;;;3.36;65.17;99886.94;4895173;29;20426;-87
2024/01/16 00:06:58;;;;;;;0.80;0.65;;;;;;;3.52;64.58;99878.47;4893933;29;20402;-88
2024/01/16 00:09:23;;;;;;;2.70;1.70;;;;;;;3.48;65.02;99886.78;4895025;29;20402;-87
2024/01/16 00:11:49;;;;;;;1.90;1.60;;;;;;;3.56;64.73;99900.78;4894493;29;20446;-88
2024/01/16 00:14:14;;;;;;;1.73;1.55;;;;;;;3.76;64.03;99900.69;4893874;29;20402;-88
2024/01/16 00:16:44;;;;;;;9.35;2.00;;;;;;;3.96;63.57;99890.91;4892888;29;20390;-88
2024/01/16 00:19:11;;;;;;;1.25;1.10;;;;;;;4.06;63.38;99896.94;4891343;29;20402;-87
2024/01/16 00:21:47;;;;;;;0.90;0.80;;;;;;;4.32;62.73;99888.31;4891673;29;20400;-88
2024/01/16 00:24:13;;;;;;;1.00;0.70;;;;;;;4.37;62.14;99891.31;4891466;29;20437;-86
2024/01/16 00:26:50;;;;;;;2.80;1.75;;;;;;;4.28;62.46;99906.16;4891915;29;20485;-87
2024/01/16 00:29:15;;;;;;;0.73;0.73;;;;;;;4.36;62.46;99910.69;4896687;29;20499;-86
2024/01/16 00:31:41;;;;;;;0.70;0.70;;;;;;;4.30;62.18;99908.66;4907502;29;20482;-85
2024/01/16 00:34:07;;;;;;;1.50;1.40;;;;;;;4.05;63.15;99918.06;4918028;29;20469;-84
2024/01/16 00:36:33;;;;;;;0.83;0.83;;;;;;;3.89;64.06;99924.78;4899561;29;20394;-86
2024/01/16 00:38:58;;;;;;;1.00;0.90;;;;;;;3.73;64.96;99935.06;4896516;29;20423;-87
2024/01/16 00:41:24;;;;;;;0.87;0.83;;;;;;;3.79;64.80;99947.59;4898592;29;20398;-87
2024/01/16 00:43:49;;;;;;;1.70;1.00;;;;;;;3.86;64.82;99960.94;4898884;29;20524;-88
2024/01/16 00:46:15;;;;;;;1.30;1.00;;;;;;;4.04;64.11;99964.44;4899897;29;20446;-88
2024/01/16 00:48:41;;;;;;;3.80;2.17;;;;;;;4.06;63.96;99980.03;4905741;29;20390;-88
2024/01/16 00:51:06;;;;;;;1.85;1.40;;;;;;;3.99;63.75;99980.59;4918764;29;20437;-87
2024/01/16 00:53:32;;;;;;;2.38;1.80;;;;;;;4.03;63.92;99994.25;4917078;29;20409;-85
2024/01/16 00:56:00;;;;;;;1.30;1.20;;;;;;;3.93;64.60;99998.72;4917461;29;20402;-85
2024/01/16 00:58:26;;;;;;;1.73;1.20;;;;;;;4.06;63.97;99999.22;4915913;29;20506;-86
2024/01/16 01:00:52;;;;;;;1.67;1.55;;;;;;;4.08;64.10;100001.69;4915446;29;20414;-87
2024/01/16 01:03:17;;;;;;;1.07;0.97;;;;;;;4.23;63.71;100010.72;4906136;29;20558;-87
2024/01/16 01:05:43;;;;;;;1.03;0.90;;;;;;;4.36;63.67;100008.59;4894691;29;20418;-87
2024/01/16 01:08:09;;;;;;;0.50;0.50;;;;;;;4.55;63.08;100006.81;4894471;29;20870;-88
2024/01/16 01:10:34;;;;;;;1.00;1.00;;;;;;;4.69;62.53;100013.34;4910644;29;20400;-88
2024/01/16 01:13:00;;;;;;;0.90;0.90;;;;;;;4.81;62.07;100014.78;4898056;29;20465;-88
2024/01/16 01:15:25;;;;;;;0.70;0.70;;;;;;;4.95;61.99;100005.53;4896700;29;21260;-88
2024/01/16 01:17:51;;;;;;;0.90;0.90;;;;;;;5.04;61.98;100002.03;4895972;29;20398;-87
2024/01/16 01:20:19;;;;;;;0.70;0.60;;;;;;;4.99;61.74;100004.28;4897642;29;20398;-88
2024/01/16 01:22:45;;;;;;;1.25;1.15;;;;;;;5.03;61.97;100008.25;4897666;29;20409;-89
2024/01/16 01:25:11;;;;;;;1.00;1.00;;;;;;;5.12;61.96;99999.47;4896931;29;20418;-88
2024/01/16 01:27:38;;;;;;;0.60;0.60;;;;;;;5.23;61.77;99998.38;4895888;29;20398;-89
2024/01/16 01:30:05;;;;;;;0.50;0.50;;;;;;;5.36;61.51;99990.09;4896685;29;20924;-90
2024/01/16 01:32:30;;;;;;;0.53;0.53;;;;;;;5.47;61.33;99991.66;4896575;29;20444;-89
2024/01/16 01:34:56;;;;;;;0.60;0.60;;;;;;;5.57;61.23;99992.38;4895783;29;20433;-88
2024/01/16 01:37:22;;;;;;;0.73;0.70;;;;;;;5.52;60.99;100002.53;4896256;29;20485;-89
2024/01/16 01:39:47;;;;;;;0.50;0.40;;;;;;;5.60;61.13;100013.09;4895714;29;20513;-89
2024/01/16 01:42:15;;;;;;;1.10;1.00;;;;;;;5.64;61.27;100011.81;4895848;29;20821;-90
2024/01/16 01:44:41;;;;;;;0.60;0.60;;;;;;;5.69;60.86;100006.06;4895002;29;20414;-88
2024/01/16 01:47:08;;;;;;;1.70;1.60;;;;;;;5.66;60.59;100012.47;4895150;29;20528;-88
2024/01/16 01:49:36;;;;;;;3.60;1.17;;;;;;;5.53;60.82;100017.34;4917602;23;20577;-87
2024/01/16 01:52:03;;;;;;;0.57;0.57;;;;;;;5.50;60.63;100007.94;4914109;29;20412;-87
2024/01/16 01:54:31;;;;;;;0.65;0.47;;;;;;;5.35;60.77;100007.69;4916042;29;20396;-89
2024/01/16 01:56:56;;;;;;;0.60;0.40;;;;;;;5.06;61.00;100025.50;4914886;29;20445;-88
2024/01/16 01:59:23;;;;;;;1.00;0.60;;;;;;;4.99;60.81;100035.81;4914590;29;20432;-88
2024/01/16 02:01:52;;;;;;;0.95;0.82;;;;;;;4.97;61.01;100030.69;4914944;29;20899;-87
2024/01/16 02:04:19;;;;;;;0.30;0.30;;;;;;;5.14;60.53;100034.28;4914287;29;20424;-88
2024/01/16 02:06:45;;;;;;;0.55;0.32;;;;;;;5.16;60.14;100032.31;4912705;29;20397;-88
2024/01/16 02:09:13;;;;;;;0.30;0.30;;;;;;;5.29;60.20;100044.25;4909992;29;20405;-87
2024/01/16 02:11:42;;;;;;;0.63;0.45;;;;;;;5.52;59.43;100063.00;4894309;29;20398;-87
2024/01/16 02:14:09;;;;;;;0.47;0.32;;;;;;;5.39;59.25;100068.66;4909454;29;20400;-88
2024/01/16 02:16:40;;;;;;;1.90;0.60;;;;;;;5.51;58.87;100066.59;4928955;29;20384;-87
2024/01/16 02:19:06;;;;;;;0.40;0.30;;;;;;;5.48;59.18;100074.81;4912824;29;20400;-87
2024/01/16 02:21:39;;;;;;;0.43;0.43;;;;;;;5.57;58.28;100080.94;4914670;29;20959;-88
2024/01/16 02:24:09;;;;;;;0.30;0.30;;;;;;;5.64;58.34;100092.50;4930120;29;20966;-88
2024/01/16 02:26:35;;;;;;;0.80;0.60;;;;;;;5.64;58.18;100100.41;4914642;29;20401;-88
2024/01/16 02:29:02;;;;;;;0.30;0.30;;;;;;;5.70;58.12;100099.78;4930543;29;20479;-88
2024/01/16 02:31:28;;;;;;;0.68;0.35;;;;;;;5.69;57.33;100104.22;4914415;29;20406;-88
2024/01/16 02:33:53;;;;;;;0.70;0.30;;;;;;;5.70;57.46;100110.28;4914486;29;20467;-87
2024/01/16 02:36:19;;;;;;;0.33;0.30;;;;;;;5.71;57.27;100104.88;4913685;29;20405;-87
2024/01/16 02:38:45;;;;;;;0.40;0.40;;;;;;;5.80;56.60;100116.28;4913161;29;20412;-86
2024/01/16 02:41:16;;;;;;;0.30;0.30;;;;;;;5.60;56.21;100127.94;4913968;29;20469;-88
2024/01/16 02:43:42;;;;;;;0.35;0.28;;;;;;;5.52;56.29;100136.59;4914139;29;20397;-88
2024/01/16 02:46:10;;;;;;;0.30;0.20;;;;;;;5.40;56.87;100135.16;4929907;29;20484;-88
2024/01/16 02:48:37;;;;;;;0.68;0.35;;;;;;;5.45;56.82;100141.63;4906704;29;20410;-88
2024/01/16 02:51:03;;;;;;;1.10;0.50;;;;;;;5.51;56.31;100141.03;4912308;29;20816;-87
2024/01/16 02:53:30;;;;;;;0.55;0.30;;;;;;;5.50;55.82;100152.53;4912026;29;20401;-88
2024/01/16 02:55:58;;;;;;;1.02;0.52;;;;;;;5.31;55.62;100148.25;4881705;29;20945;-87
2024/01/16 02:58:24;;;;;;;0.25;0.20;;;;;;;5.24;55.53;100159.50;4904862;29;20925;-87
2024/01/16 03:00:50;;;;;;;0.25;0.25;;;;;;;5.35;55.07;100164.56;4896451;29;20399;-87
2024/01/16 03:03:16;;;;;;;0.43;0.30;;;;;;;5.35;55.03;100169.81;4908484;29;20401;-88
2024/01/16 03:05:42;;;;;;;0.32;0.30;;;;;;;5.21;53.89;100168.50;4913807;29;20487;-87
2024/01/16 03:08:08;;;;;;;0.60;0.37;;;;;;;5.25;54.67;100158.53;4913490;29;20396;-86
2024/01/16 03:10:33;;;;;;;0.77;0.60;;;;;;;5.23;54.18;100165.75;4915870;29;20952;-88
2024/01/16 03:12:59;;;;;;;0.28;0.25;;;;;;;5.34;54.23;100183.91;4916299;29;20768;-86
2024/01/16 03:15:24;;;;;;;0.60;0.30;;;;;;;5.13;54.00;100192.91;4928380;29;20428;-87
2024/01/16 03:17:50;;;;;;;0.43;0.30;;;;;;;5.16;54.19;100191.78;4945181;29;20396;-86
2024/01/16 03:20:18;;;;;;;0.27;0.20;;;;;;;5.01;53.60;100180.94;4932963;29;20436;-85
2024/01/16 03:22:44;;;;;;;0.60;0.40;;;;;;;5.18;54.24;100202.97;4926809;29;20926;-86
2024/01/16 03:25:13;;;;;;;0.20;0.20;;;;;;;5.39;53.62;100207.94;4929588;29;20481;-86
2024/01/16 03:27:39;;;;;;;0.25;0.25;;;;;;;5.41;53.09;100203.38;4939735;29;20443;-86
2024/01/16 03:30:06;;;;;;;0.23;0.20;;;;;;;5.61;53.33;100219.81;4939713;29;20396;-86
2024/01/16 03:32:32;;;;;;;0.20;0.20;;;;;;;5.69;53.23;100226.97;4919178;29;20418;-88
2024/01/16 03:34:58;;;;;;;0.40;0.20;;;;;;;5.67;52.97;100240.28;4923602;29;20410;-86
2024/01/16 03:37:23;;;;;;;0.43;0.28;;;;;;;5.80;52.69;100260.09;4906176;29;20413;-85
2024/01/16 03:39:50;;;;;;;0.53;0.40;;;;;;;5.80;53.28;100252.22;4919016;29;20412;-85
2024/01/16 03:42:15;;;;;;;0.43;0.30;;;;;;;5.83;52.71;100258.00;4900842;29;20474;-86
2024/01/16 03:44:42;;;;;;;0.60;0.40;;;;;;;5.83;52.81;100250.09;4901050;29;20794;-85
2024/01/16 03:47:08;;;;;;;0.20;0.20;;;;;;;5.85;52.75;100245.53;4902508;29;20415;-86
2024/01/16 03:49:34;;;;;;;0.73;0.43;;;;;;;5.91;52.59;100249.38;4898034;29;20477;-85
2024/01/16 03:52:00;;;;;;;0.73;0.55;;;;;;;5.94;52.54;100264.84;4898471;29;20401;-85
2024/01/16 03:54:26;;;;;;;0.30;0.28;;;;;;;5.77;52.52;100261.22;4895829;29;20424;-86
2024/01/16 03:56:52;;;;;;;0.50;0.40;;;;;;;5.83;52.39;100265.06;4896756;29;20402;-84
2024/01/16 03:59:18;;;;;;;0.30;0.30;;;;;;;5.65;52.20;100262.44;4910656;29;20460;-85
2024/01/16 04:01:45;;;;;;;0.55;0.38;;;;;;;5.60;52.29;100277.81;4906065;29;20394;-86
2024/01/16 04:04:11;;;;;;;1.60;0.70;;;;;;;5.52;52.06;100278.56;4903472;29;20433;-87
2024/01/16 04:06:37;;;;;;;0.32;0.30;;;;;;;5.54;51.28;100277.44;4896248;29;20409;-87
2024/01/16 04:09:03;;;;;;;0.38;0.30;;;;;;;5.65;52.16;100293.97;4898051;29;20401;-86
2024/01/16 04:11:29;;;;;;;0.50;0.30;;;;;;;5.62;51.54;100283.75;4898935;29;20822;-88
2024/01/16 04:13:55;;;;;;;0.30;0.28;;;;;;;5.53;51.83;100288.13;4909913;29;20779;-87
2024/01/16 04:16:23;;;;;;;0.28;0.25;;;;;;;5.53;51.05;100296.00;4904859;29;20390;-87
2024/01/16 04:18:49;;;;;;;0.30;0.20;;;;;;;5.67;51.33;100292.03;4909509;29;20858;-86
2024/01/16 04:21:14;;;;;;;0.20;0.20;;;;;;;5.51;51.09;100301.41;4897659;29;20396;-88
2024/01/16 04:23:41;;;;;;;0.28;0.25;;;;;;;5.57;51.69;100320.19;4907953;29;20410;-88
2024/01/16 04:26:07;;;;;;;0.32;0.32;;;;;;;5.30;51.01;100306.09;4903267;29;20400;-87
2024/01/16 04:28:33;;;;;;;0.32;0.30;;;;;;;5.17;50.91;100328.25;4911057;29;20397;-88
2024/01/16 04:31:00;;;;;;;0.30;0.30;;;;;;;5.10;51.32;100350.00;4928678;29;20411;-86
2024/01/16 04:33:26;;;;;;;0.30;0.30;;;;;;;4.91;51.47;100353.50;4912888;29;20405;-86
2024/01/16 04:35:51;;;;;;;0.20;0.20;;;;;;;5.03;51.42;100370.75;4926431;29;20388;-87
2024/01/16 04:38:17;;;;;;;0.23;0.20;;;;;;;4.87;50.87;100373.97;4908885;29;20409;-86
2024/01/16 04:40:43;;;;;;;0.80;0.40;;;;;;;4.89;51.31;100386.97;4910307;29;20452;-87
2024/01/16 04:43:08;;;;;;;0.60;0.45;;;;;;;4.85;51.55;100394.28;4894616;29;20408;-87
2024/01/16 04:45:34;;;;;;;0.38;0.38;;;;;;;4.73;51.55;100408.53;4893711;29;20422;-86
2024/01/16 04:47:59;;;;;;;0.28;0.20;;;;;;;4.81;51.68;100407.84;4901222;29;21496;-86
2024/01/16 04:50:31;;;;;;;0.40;0.30;;;;;;;4.83;51.64;100396.25;4894746;29;20509;-85
2024/01/16 04:53:00;;;;;;;0.30;0.30;;;;;;;4.74;51.26;100410.22;4905178;29;20473;-85
2024/01/16 04:55:26;;;;;;;10.20;1.85;;;;;;;4.73;51.44;100435.63;4913726;29;20445;-87
2024/01/16 04:57:53;;;;;;;0.43;0.30;;;;;;;4.67;51.05;100424.88;4935244;29;20413;-88
2024/01/16 05:00:18;;;;;;;0.52;0.40;;;;;;;4.64;51.65;100428.56;4922134;29;20419;-87
2024/01/16 05:02:44;;;;;;;0.20;0.20;;;;;;;4.63;51.73;100447.94;4925180;29;20384;-87
2024/01/16 05:05:09;;;;;;;0.30;0.30;;;;;;;4.63;51.73;100447.94;4931807;29;20582;-86
2024/01/16 05:07:35;;;;;;;0.40;0.40;;;;;;;4.66;51.17;100444.19;4925426;29;20406;-85
2024/01/16 05:10:01;;;;;;;0.20;0.20;;;;;;;4.67;51.72;100430.13;4933968;29;20450;-86
2024/01/16 05:12:27;;;;;;;0.60;0.50;;;;;;;4.66;51.46;100452.06;4925486;29;20481;-86
2024/01/16 05:14:52;;;;;;;0.30;0.30;;;;;;;4.70;51.70;100453.44;4912129;29;20396;-87
2024/01/16 05:17:18;;;;;;;0.27;0.27;;;;;;;4.44;51.72;100448.75;4908468;29;20407;-87
2024/01/16 05:19:44;;;;;;;0.95;0.55;;;;;;;4.53;51.71;100460.22;4918077;29;20399;-83
2024/01/16 05:22:10;;;;;;;1.33;0.65;;;;;;;4.50;52.08;100457.88;4928906;29;20405;-88
2024/01/16 05:24:36;;;;;;;0.55;0.30;;;;;;;4.47;51.74;100471.28;4898559;29;20422;-87
2024/01/16 05:27:04;;;;;;;0.80;0.50;;;;;;;4.68;51.94;100490.38;4908635;29;20412;-87
2024/01/16 05:29:31;;;;;;;0.63;0.40;;;;;;;4.78;52.20;100509.56;4908181;29;20400;-86
2024/01/16 05:31:56;;;;;;;0.95;0.40;;;;;;;4.64;52.12;100511.78;4912250;29;20465;-86
2024/01/16 05:34:22;;;;;;;0.50;0.30;;;;;;;4.93;51.88;100527.53;4909836;29;20402;-85
2024/01/16 05:36:48;;;;;;;0.20;0.20;;;;;;;4.97;51.37;100514.00;4902672;29;20478;-85
2024/01/16 05:39:13;;;;;;;0.50;0.50;;;;;;;4.84;51.71;100520.50;4913708;29;20448;-83
2024/01/16 05:41:39;;;;;;;0.60;0.45;;;;;;;4.81;51.97;100523.38;4922954;29;20836;-84
2024/01/16 05:44:05;;;;;;;1.00;0.45;;;;;;;4.77;51.56;100528.94;4897964;29;20526;-85
2024/01/16 05:46:34;;;;;;;1.45;1.00;;;;;;;4.78;52.03;100559.47;4897481;29;20410;-86
2024/01/16 05:48:59;;;;;;;0.75;0.40;;;;;;;4.81;51.86;100566.25;4911316;29;20912;-85
2024/01/16 05:51:27;;;;;;;1.13;0.40;;;;;;;4.95;51.95;100552.72;4916166;29;20493;-88
2024/01/16 05:53:53;;;;;;;0.80;0.50;;;;;;;4.92;51.44;100576.63;4917973;29;20452;-87
2024/01/16 05:56:18;;;;;;;0.80;0.38;;;;;;;4.83;51.25;100580.06;4913544;29;20408;-85
2024/01/16 05:58:44;;;;;;;1.50;0.50;;;;;;;4.85;51.62;100599.16;4915839;29;20932;-85
2024/01/16 06:01:13;;;;;;;0.55;0.55;;;;;;;4.88;51.39;100614.66;4931682;29;20862;-86
2024/01/16 06:03:43;;;;;;;0.30;0.20;;;;;;;5.04;51.49;100619.38;4932679;29;20923;-85
2024/01/16 06:06:14;;;;;;;0.50;0.50;;;;;;;5.28;50.73;100623.41;4912815;29;20410;-85
2024/01/16 06:08:40;;;;;;;0.30;0.30;;;;;;;5.37;50.96;100630.47;4918420;29;20399;-86
2024/01/16 06:11:10;;;;;;;0.50;0.50;;;;;;;5.37;51.36;100638.34;4910184;29;20404;-86
2024/01/16 06:13:40;;;;;;;0.50;0.50;;;;;;;5.40;51.22;100643.31;4907633;29;20745;-86
2024/01/16 06:16:08;;;;;;;0.17;0.17;;;;;;;5.32;51.38;100628.22;4917236;29;20797;-86
2024/01/16 06:18:36;;;;;;;0.20;0.20;;;;;;;5.22;50.99;100630.03;4916955;29;20393;-88
2024/01/16 06:21:12;;;;;;;0.57;0.57;;;;;;;5.04;51.33;100647.44;4916147;29;20424;-86
2024/01/16 06:23:37;;;;;;;0.30;0.30;;;;;;;4.98;51.79;100643.53;4915953;29;20516;-87
2024/01/16 06:26:03;;;;;;;0.30;0.30;;;;;;;5.06;51.62;100640.22;4917009;29;20507;-87
2024/01/16 06:28:28;;;;;;;0.57;0.45;;;;;;;5.13;51.81;100636.09;4918925;29;20388;-86
2024/01/16 06:30:54;;;;;;;0.17;0.17;;;;;;;5.20;51.45;100649.53;4918112;29;20757;-85
2024/01/16 06:33:20;;;;;;;0.40;0.30;;;;;;;5.37;51.26;100672.50;4917922;29;20798;-86
2024/01/16 06:35:45;;;;;;;0.17;0.17;;;;;;;5.38;51.45;100671.53;4917765;29;20401;-86
2024/01/16 06:38:14;;;;;;;0.30;0.30;;;;;;;5.46;51.39;100682.19;4916691;29;20407;-86
2024/01/16 06:40:39;;;;;;;0.20;0.20;;;;;;;5.46;51.31;100673.50;4917932;29;20400;-86
2024/01/16 06:43:08;;;;;;;0.20;0.20;;;;;;;5.48;50.80;100685.53;4913306;29;20398;-88
2024/01/16 06:45:39;;;;;;;0.35;0.35;;;;;;;5.60;50.78;100696.75;4925800;29;20473;-87
2024/01/16 06:48:06;;;;;;;0.10;0.10;;;;;;;5.67;51.80;100695.22;4904941;29;20397;-87
2024/01/16 06:50:34;;;;;;;0.30;0.30;;;;;;;5.47;50.89;100696.16;4898854;29;20936;-89
2024/01/16 06:53:05;;;;;;;0.30;0.30;;;;;;;5.29;50.89;100709.16;4910753;29;20412;-86
2024/01/16 06:55:31;;;;;;;0.43;0.30;;;;;;;5.48;50.90;100708.38;4912152;29;20530;-90
2024/01/16 06:57:58;;;;;;;0.40;0.40;;;;;;;5.55;50.58;100725.25;4900877;29;20400;-87
2024/01/16 07:00:26;;;;;;;0.40;0.40;;;;;;;5.59;50.69;100731.06;4902008;29;20401;-88
2024/01/16 07:02:54;;;;;;;0.50;0.50;;;;;;;5.69;50.30;100737.16;4899298;29;20403;-85
2024/01/16 07:05:23;;;;;;;0.65;0.38;;;;;;;5.58;51.04;100753.88;4901771;29;20919;-86
2024/01/16 07:07:51;;;;;;;0.20;0.20;;;;;;;5.61;50.10;100758.88;4911371;29;20393;-85
2024/01/16 07:10:22;;;;;;;0.30;0.30;;;;;;;5.44;50.26;100743.75;4900927;29;20422;-84
2024/01/16 07:12:51;;;;;;;1.27;1.20;;;;;;;5.55;50.26;100749.75;4914774;29;20936;-85
2024/01/16 07:15:21;;;;;;;0.40;0.40;;;;;;;5.64;50.04;100752.53;4902340;29;20418;-83
2024/01/16 07:17:47;;;;;;;0.60;0.60;;;;;;;5.63;50.74;100766.63;4908074;29;20857;-86
2024/01/16 07:20:18;;;;;;;0.50;0.50;;;;;;;5.79;49.94;100763.47;4915407;29;20438;-81
2024/01/16 07:22:47;;;;;;;1.50;1.17;;;;;;;5.75;50.22;100776.88;4924130;29;20511;-83
2024/01/16 07:25:12;;;;;;;0.32;0.32;;;;;;;5.62;50.19;100780.72;4914467;29;20500;-84
2024/01/16 07:27:38;;;;;;;0.50;0.50;;;;;;;5.63;50.41;100770.09;4915462;29;20491;-86
2024/01/16 07:30:06;;;;;;;0.73;0.35;;;;;;;5.53;50.22;100785.03;4914991;29;20486;-86
2024/01/16 07:32:32;;;;;;;0.43;0.40;;;;;;;5.59;50.06;100787.13;4915019;29;20404;-87
2024/01/16 07:34:57;;;;;;;0.30;0.30;;;;;;;5.61;49.97;100794.88;4914746;29;20388;-87
2024/01/16 07:37:23;;;;;;;0.50;0.43;;;;;;;5.64;49.63;100791.97;4917066;29;20428;-87
2024/01/16 07:39:51;;;;;;;0.75;0.55;;;;;;;5.55;49.17;100799.69;4937064;29;20493;-82
2024/01/16 07:42:19;;;;;;;0.20;0.20;;;;;;;5.67;48.63;100803.06;4929753;29;20456;-83
2024/01/16 07:44:45;;;;;;;0.20;0.20;;;;;;;5.71;49.09;100806.25;4907198;29;20439;-85
2024/01/16 07:47:15;;;;;;;0.65;0.65;;;;;;;5.90;48.79;100814.13;4916039;29;20907;-85
2024/01/16 07:49:42;;;;;;;0.45;0.32;;;;;;;5.94;48.60;100822.59;4934593;29;20894;-85
2024/01/16 07:52:07;;;;;;;0.30;0.30;;;;;;;5.94;48.76;100831.34;4917032;29;20421;-86
2024/01/16 07:54:36;;;;;;;0.30;0.30;;;;;;;6.00;48.87;100834.44;4927543;29;20401;-84
2024/01/16 07:57:02;;;;;;;0.20;0.20;;;;;;;6.21;48.71;100861.44;4920306;29;20400;-87
2024/01/16 07:59:27;;;;;;;0.30;0.30;;;;;;;6.32;48.97;100858.69;4916064;29;20508;-86
2024/01/16 08:01:57;;;;;;;0.32;0.32;;;;;;;6.40;48.92;100872.94;4914724;29;20776;-86
2024/01/16 08:04:23;;;;;;;0.50;0.50;;;;;;;6.21;48.92;100858.81;4912907;29;20423;-86
2024/01/16 08:06:48;;;;;;;0.40;0.40;;;;;;;6.38;48.97;100874.88;4929677;29;20400;-87
2024/01/16 08:09:20;;;;;;;0.20;0.20;;;;;;;6.06;48.73;100881.22;4932294;29;20482;-85
2024/01/16 08:11:54;;;;;;;0.40;0.40;;;;;;;6.22;48.93;100888.59;4919777;29;20404;-85
2024/01/16 08:14:25;;;;;;;0.20;0.20;;;;;;;6.34;49.24;100905.06;4906484;29;20803;-86
2024/01/16 08:16:54;;;;;;;0.20;0.20;;;;;;;6.23;48.69;100906.91;4912647;29;20392;-87
2024/01/16 08:19:20;;;;;;;0.22;0.20;;;;;;;5.98;48.82;100894.22;4915171;29;20890;-85
2024/01/16 08:21:45;;;;;;;0.40;0.40;;;;;;;5.72;48.77;100906.03;4903340;29;20503;-85
2024/01/16 08:24:14;;;;;;;0.20;0.20;;;;;;;6.06;48.57;100910.19;4905738;29;20420;-85
2024/01/16 08:26:45;;;;;;;0.30;0.30;;;;;;;6.31;48.35;100908.84;4928437;29;20447;-86
2024/01/16 08:29:10;;;;;;;0.22;0.22;;;;;;;6.38;48.00;100919.66;4916393;29;20401;-84
2024/01/16 08:31:36;;;;;;;0.20;0.20;;;;;;;6.27;48.23;100920.63;4915519;29;20415;-86
2024/01/16 08:34:02;;;;;;;0.30;0.30;;;;;;;6.35;48.62;100926.00;4925775;29;20402;-85
2024/01/16 08:36:29;;;;;;;0.50;0.50;;;;;;;6.21;48.06;100944.84;4922745;29;20387;-85
2024/01/16 08:38:58;;;;;;;0.15;0.15;;;;;;;6.17;47.89;100938.19;4923860;29;20447;-85
2024/01/16 08:41:24;;;;;;;1.45;0.80;;;;;;;6.36;47.98;100943.47;4918788;29;20391;-84
2024/01/16 08:43:50;;;;;;;0.30;0.30;;;;;;;6.30;47.95;100944.88;4919979;29;20946;-83
2024/01/16 08:46:19;;;;;;;0.65;0.65;;;;;;;6.34;47.75;100945.44;4917927;29;20433;-84
2024/01/16 08:48:45;;;;;;;0.30;0.30;;;;;;;6.53;47.29;100941.97;4919829;29;20464;-84
2024/01/16 08:51:14;;;;;;;0.30;0.30;;;;;;;6.22;47.13;100949.16;4913859;29;20455;-85
2024/01/16 08:53:40;;;;;;;0.10;0.10;;;;;;;6.44;48.06;100956.78;4911603;29;20884;-86
2024/01/16 08:56:08;;;;;;;0.20;0.20;;;;;;;6.32;47.48;100963.16;4909883;29;20402;-88
2024/01/16 08:58:36;;;;;;;0.57;0.52;;;;;;;6.47;46.06;100963.59;4914259;29;20392;-82
2024/01/16 09:01:03;;;;;;;0.43;0.40;;;;;;;6.21;46.80;100977.28;4914485;29;20408;-85
2024/01/16 09:03:31;;;;;;;0.40;0.30;;;;;;;6.73;46.72;100979.69;4914878;29;20404;-84
2024/01/16 09:05:59;;;;;;;0.40;0.30;;;;;;;6.41;46.53;100993.09;4901891;29;20415;-85
2024/01/16 09:08:26;;;;;;;0.20;0.20;;;;;;;6.63;47.07;101002.56;4913851;29;20412;-85
2024/01/16 09:11:17;;;;;;;0.30;0.30;;;;;;;6.48;45.98;100995.06;4909116;29;20382;-85
2024/01/16 09:13:50;;;;;;;0.28;0.28;;;;;;;6.66;45.85;101000.50;4911261;29;20397;-87
2024/01/16 09:16:39;;;;;;;0.30;0.30;;;;;;;6.46;45.73;101010.16;4912635;29;20488;-84
2024/01/16 09:19:09;;;;;;;0.65;0.35;;;;;;;6.16;45.93;101005.78;4916357;29;20400;-85
2024/01/16 09:21:35;;;;;;;0.40;0.20;;;;;;;6.10;45.20;101003.69;4923409;29;20420;-84
2024/01/16 09:24:01;;;;;;;1.10;0.43;;;;;;;6.38;45.29;101010.00;4912421;29;20935;-85
2024/01/16 09:26:27;;;;;;;0.20;0.20;;;;;;;6.25;44.20;101009.44;4912929;29;20403;-84
2024/01/16 09:28:53;;;;;;;0.85;0.35;;;;;;;6.16;45.07;101010.22;4913190;29;20396;-84
2024/01/16 09:31:19;;;;;;;0.25;0.20;;;;;;;6.06;44.11;101004.91;4914989;29;20410;-85
2024/01/16 09:33:44;;;;;;;1.45;0.75;;;;;;;6.13;44.70;101001.63;4920155;29;20392;-86
2024/01/16 09:36:10;;;;;;;0.60;0.40;;;;;;;6.36;44.09;101011.94;4921718;29;20455;-86
2024/01/16 09:38:36;;;;;;;0.30;0.30;;;;;;;6.38;44.17;101019.72;4918601;29;20420;-85
2024/01/16 09:41:02;;;;;;;0.40;0.40;;;;;;;6.02;44.29;101014.06;4928556;29;20410;-84
2024/01/16 09:43:29;;;;;;;0.35;0.30;;;;;;;5.83;44.53;101018.22;4915818;29;20404;-85
2024/01/16 09:45:56;;;;;;;0.20;0.20;;;;;;;6.05;44.19;101025.16;4910290;29;20453;-89
2024/01/16 09:48:28;;;;;;;0.40;0.40;;;;;;;6.08;44.32;101034.56;4934718;29;20446;-87
2024/01/16 09:50:53;;;;;;;1.40;1.10;;;;;;;5.85;44.08;101053.16;4934880;29;20575;-84
2024/01/16 09:53:19;;;;;;;0.60;0.60;;;;;;;6.22;44.72;101039.47;4935300;29;20414;-87
2024/01/16 09:55:50;;;;;;;0.90;0.60;;;;;;;6.16;44.46;101062.84;4935539;29;20410;-86
2024/01/16 09:58:19;;;;;;;0.20;0.20;;;;;;;5.80;44.26;101057.09;4934350;29;20399;-84
2024/01/16 10:00:49;;;;;;;0.30;0.30;;;;;;;5.71;44.44;101056.94;4934407;29;20399;-86
2024/01/16 10:03:16;;;;;;;0.20;0.20;;;;;;;6.07;43.88;101048.72;4936040;29;20395;-86
2024/01/16 10:05:43;;;;;;;0.32;0.32;;;;;;;6.22;44.38;101047.38;4937790;29;20483;-84
2024/01/16 10:08:09;;;;;;;1.48;0.50;;;;;;;6.32;44.41;101047.41;4945222;29;20431;-84
2024/01/16 10:10:34;;;;;;;0.10;0.10;;;;;;;6.03;43.95;101039.38;4947194;29;20405;-83
2024/01/16 10:13:00;;;;;;;0.10;0.10;;;;;;;6.48;43.79;101054.78;4948915;29;20409;-84
2024/01/16 10:15:26;;;;;;;0.20;0.20;;;;;;;6.35;43.49;101052.38;4947107;29;20406;-85
2024/01/16 10:17:52;;;;;;;0.40;0.30;;;;;;;6.68;43.64;101053.00;4936611;29;20403;-85
2024/01/16 10:20:34;;;;;;;0.32;0.32;;;;;;;6.77;42.89;101049.59;4936055;29;20399;-85
2024/01/16 10:22:59;;;;;;;0.20;0.20;;;;;;;6.97;43.34;101047.81;4936625;29;20934;-84
2024/01/16 10:25:25;;;;;;;0.30;0.30;;;;;;;6.76;42.63;101063.72;4937731;29;20457;-85
2024/01/16 10:28:04;;;;;;;0.30;0.30;;;;;;;6.67;42.83;101049.56;4951465;29;20395;-84
2024/01/16 10:30:30;;;;;;;0.20;0.20;;;;;;;6.49;42.38;101059.91;4935559;29;20514;-85
2024/01/16 10:33:11;;;;;;;0.50;0.50;;;;;;;6.65;42.63;101062.03;4938280;29;20910;-86
2024/01/16 10:35:37;;;;;;;0.22;0.22;;;;;;;6.82;42.54;101059.69;4936708;29;20895;-86
2024/01/16 10:38:03;;;;;;;0.10;0.10;;;;;;;6.41;42.30;101069.44;4935788;29;20453;-85
2024/01/16 10:40:31;;;;;;;0.30;0.30;;;;;;;6.24;41.84;101074.38;4935931;29;20395;-88
2024/01/16 10:43:04;;;;;;;0.22;0.20;;;;;;;6.40;42.36;101076.53;4951615;28;20921;-84
2024/01/16 10:45:31;;;;;;;0.68;0.68;;;;;;;6.47;41.72;101071.56;4935014;29;20415;-83
2024/01/16 10:48:07;;;;;;;0.68;0.52;;;;;;;6.49;41.39;101064.34;4934655;29;21108;-84
2024/01/16 10:50:34;;;;;;;0.30;0.30;;;;;;;6.39;41.72;101066.13;4933685;29;20414;-86
2024/01/16 10:53:03;;;;;;;0.30;0.30;;;;;;;6.58;41.09;101071.44;4935096;29;20460;-85
2024/01/16 10:55:54;;;;;;;0.30;0.28;;;;;;;6.48;41.11;101068.81;4934996;29;20926;-85
2024/01/16 10:58:22;;;;;;;0.43;0.43;;;;;;;6.53;41.14;101063.13;4934253;29;20395;-85
2024/01/16 11:00:52;;;;;;;0.20;0.20;;;;;;;6.77;40.99;101068.03;4936545;29;20787;-84
2024/01/16 11:03:45;;;;;;;0.40;0.40;;;;;;;6.71;40.59;101084.38;4935244;29;20397;-84
2024/01/16 11:06:11;;;;;;;0.40;0.40;;;;;;;6.63;40.73;101087.69;4936144;29;21007;-84
2024/01/16 11:08:39;;;;;;;0.13;0.13;;;;;;;6.66;40.10;101089.19;4935646;29;20425;-86
2024/01/16 11:11:05;;;;;;;0.25;0.25;;;;;;;6.62;40.19;101091.28;4936294;29;20897;-84
2024/01/16 11:13:33;;;;;;;0.20;0.20;;;;;;;6.62;40.43;101087.81;4934883;29;20918;-84
2024/01/16 11:16:03;;;;;;;0.10;0.10;;;;;;;6.69;39.99;101089.75;4935558;29;20399;-83
2024/01/16 11:18:32;;;;;;;0.20;0.20;;;;;;;6.59;39.99;101085.44;4919101;29;20411;-83
2024/01/16 11:20:59;;;;;;;0.20;0.20;;;;;;;6.81;40.41;101093.13;4937695;29;20793;-85
2024/01/16 11:23:25;;;;;;;0.50;0.50;;;;;;;6.93;40.65;101103.53;4949210;29;20390;-81
2024/01/16 11:25:50;;;;;;;0.40;0.40;;;;;;;6.62;41.17;101104.44;4939038;29;20443;-84
2024/01/16 11:28:19;;;;;;;0.20;0.20;;;;;;;6.62;41.07;101114.16;4935917;29;20914;-84
2024/01/16 11:30:45;;;;;;;0.50;0.50;;;;;;;6.65;41.25;101103.34;4935069;29;20395;-85
2024/01/16 11:33:32;;;;;;;1.50;0.70;;;;;;;6.53;41.39;101107.06;4936016;29;20387;-86
2024/01/16 11:35:59;;;;;;;3.80;0.90;;;;;;;6.51;41.62;101102.75;4936713;29;20425;-84